Time;durP1;ratioP1;P1;durP2;ratioP2;P2;SDS_P1;SDS_P2;PMS_P1;PMS_P2;Temp;Humidity;BMP_temperature;BMP_pressure;BME280_temperature;BME280_humidity;BME280_pressure;Samples;Min_cycle;Max_cycle;Signal;HPM_P1;HPM_P2
2021/01/25 00:01:53;;;;;;;;;;;;;;;22.04;28.84;96662.91;4980881;28;909;-74
2021/01/25 00:04:18;;;;;;;;;;;;;;;22.17;28.76;96657.00;4980703;28;1961;-75
2021/01/25 00:06:44;;;;;;;;;;;;;;;22.25;28.81;96664.69;4980946;28;1114;-75
2021/01/25 00:09:09;;;;;;;;;;;;;;;21.84;29.11;96664.25;4981021;28;753;-75
2021/01/25 00:11:35;;;;;;;;;;;;;;;21.51;29.72;96646.47;4980640;28;962;-74
2021/01/25 00:14:00;;;;;;;;;;;;;;;21.52;29.37;96648.03;4980576;28;833;-75
2021/01/25 00:16:25;;;;;;;;;;;;;;;21.65;29.24;96650.63;4981108;28;1029;-75
2021/01/25 00:18:51;;;;;;;;;;;;;;;21.90;29.45;96649.44;4980944;28;599;-75
2021/01/25 00:21:17;;;;;;;;;;;;;;;21.96;29.27;96639.00;4981259;28;611;-75
2021/01/25 00:23:44;;;;;;;;;;;;;;;22.15;28.84;96637.69;4980680;28;627;-74
2021/01/25 00:26:09;;;;;;;;;;;;;;;22.19;28.37;96626.97;4980529;28;1918;-75
2021/01/25 00:28:35;;;;;;;;;;;;;;;21.93;28.88;96625.81;4963491;28;1932;-75
2021/01/25 00:31:00;;;;;;;;;;;;;;;21.60;28.98;96620.94;4980714;28;1037;-75
2021/01/25 00:33:26;;;;;;;;;;;;;;;21.49;29.43;96615.00;4980831;28;596;-75
2021/01/25 00:35:51;;;;;;;;;;;;;;;21.96;28.99;96613.53;4981121;28;694;-75
2021/01/25 00:38:16;;;;;;;;;;;;;;;22.06;28.82;96612.19;4980571;28;769;-75
2021/01/25 00:40:42;;;;;;;;;;;;;;;22.14;28.60;96615.50;4982015;28;1002;-75
2021/01/25 00:43:08;;;;;;;;;;;;;;;22.23;28.57;96604.91;4984245;28;962;-74
2021/01/25 00:45:33;;;;;;;;;;;;;;;22.35;28.16;96589.69;4984227;28;1907;-75
2021/01/25 00:47:58;;;;;;;;;;;;;;;22.04;28.70;96594.91;4984241;28;690;-75
2021/01/25 00:50:24;;;;;;;;;;;;;;;21.54;29.16;96571.91;4984305;28;644;-75
2021/01/25 00:52:52;;;;;;;;;;;;;;;21.41;29.36;96574.19;4967380;28;1353;-74
2021/01/25 00:55:18;;;;;;;;;;;;;;;21.70;29.33;96571.50;4983978;28;991;-75
2021/01/25 00:57:44;;;;;;;;;;;;;;;21.98;28.99;96569.31;4983976;28;943;-73
2021/01/25 01:00:09;;;;;;;;;;;;;;;22.05;28.78;96565.31;4984266;28;1072;-75
2021/01/25 01:02:35;;;;;;;;;;;;;;;22.20;28.45;96566.19;4984090;28;721;-75
2021/01/25 01:05:01;;;;;;;;;;;;;;;21.66;29.09;96568.09;4983949;28;1903;-75
2021/01/25 01:07:26;;;;;;;;;;;;;;;21.40;29.36;96555.63;4966476;28;1007;-75
2021/01/25 01:09:52;;;;;;;;;;;;;;;21.40;29.26;96558.44;4983994;28;642;-75
2021/01/25 01:12:17;;;;;;;;;;;;;;;21.92;29.06;96561.97;4983696;28;930;-75
2021/01/25 01:14:42;;;;;;;;;;;;;;;21.95;28.84;96549.66;4983595;28;902;-73
2021/01/25 01:17:08;;;;;;;;;;;;;;;22.03;28.88;96540.31;4982464;28;1294;-75
2021/01/25 01:19:33;;;;;;;;;;;;;;;22.03;28.55;96536.72;4964567;29;786;-74
2021/01/25 01:21:59;;;;;;;;;;;;;;;21.72;28.84;96532.19;4964508;29;711;-75
2021/01/25 01:24:24;;;;;;;;;;;;;;;21.49;28.96;96533.72;4964281;29;1906;-74
2021/01/25 01:26:50;;;;;;;;;;;;;;;21.58;29.15;96533.69;4963929;29;890;-73
2021/01/25 01:29:15;;;;;;;;;;;;;;;21.90;28.83;96524.84;4963817;29;930;-75
2021/01/25 01:31:41;;;;;;;;;;;;;;;22.01;28.46;96536.38;4964137;29;841;-73
2021/01/25 01:34:06;;;;;;;;;;;;;;;22.06;28.48;96521.56;4964353;29;655;-74
2021/01/25 01:36:32;;;;;;;;;;;;;;;21.85;28.31;96521.41;4964236;29;651;-75
2021/01/25 01:38:57;;;;;;;;;;;;;;;21.39;29.23;96505.97;4964050;29;667;-75
2021/01/25 01:41:23;;;;;;;;;;;;;;;21.46;28.84;96499.97;4963842;29;1057;-75
2021/01/25 01:43:48;;;;;;;;;;;;;;;21.72;28.84;96486.13;4963646;29;863;-74
2021/01/25 01:46:14;;;;;;;;;;;;;;;21.82;28.71;96496.91;4964005;29;1902;-75
2021/01/25 01:48:39;;;;;;;;;;;;;;;21.93;28.35;96484.22;4947336;29;807;-75
2021/01/25 01:51:05;;;;;;;;;;;;;;;22.08;28.22;96473.72;4963541;28;652;-75
2021/01/25 01:53:30;;;;;;;;;;;;;;;21.72;28.75;96474.78;4946716;29;892;-75
2021/01/25 01:55:55;;;;;;;;;;;;;;;21.27;29.21;96468.91;4963659;29;905;-74
2021/01/25 01:58:21;;;;;;;;;;;;;;;21.30;29.33;96467.97;4963595;29;824;-75
2021/01/25 02:00:47;;;;;;;;;;;;;;;21.73;28.63;96468.63;4963938;29;603;-75
2021/01/25 02:03:12;;;;;;;;;;;;;;;21.58;28.11;96402.72;4963515;29;679;-75
2021/01/25 02:05:41;;;;;;;;;;;;;;;22.04;28.42;96461.78;4963778;29;1981;-75
2021/01/25 02:08:06;;;;;;;;;;;;;;;22.00;27.95;96444.19;4946830;29;990;-75
2021/01/25 02:10:32;;;;;;;;;;;;;;;21.71;28.40;96445.72;4946476;29;895;-74
2021/01/25 02:13:00;;;;;;;;;;;;;;;21.48;28.52;96433.13;4946759;29;1010;-75
2021/01/25 02:15:26;;;;;;;;;;;;;;;21.66;28.67;96449.19;4963376;29;658;-75
2021/01/25 02:17:51;;;;;;;;;;;;;;;21.94;28.37;96441.25;4963367;29;774;-74
2021/01/25 02:20:19;;;;;;;;;;;;;;;21.90;28.46;96439.88;4962912;29;858;-75
2021/01/25 02:22:54;;;;;;;;;;;;;;;21.94;28.26;96426.31;4946309;29;873;-75
2021/01/25 02:25:28;;;;;;;;;;;;;;;21.42;28.88;96428.59;4963150;29;1969;-75
2021/01/25 02:27:54;;;;;;;;;;;;;;;21.02;29.46;96424.09;4963189;29;659;-74
2021/01/25 02:30:20;;;;;;;;;;;;;;;21.57;28.72;96418.13;4963123;29;679;-75
2021/01/25 02:32:55;;;;;;;;;;;;;;;21.89;28.36;96421.34;4963132;29;553;-75
2021/01/25 02:35:21;;;;;;;;;;;;;;;21.96;28.38;96404.72;4946310;29;640;-75
2021/01/25 02:37:46;;;;;;;;;;;;;;;22.06;28.03;96413.94;4946490;29;707;-74
2021/01/25 02:40:12;;;;;;;;;;;;;;;21.77;28.13;96404.13;4945972;29;954;-75
2021/01/25 02:42:37;;;;;;;;;;;;;;;21.60;28.17;96400.16;4945957;29;965;-74
2021/01/25 02:45:03;;;;;;;;;;;;;;;21.49;28.50;96397.09;4945887;29;1906;-75
2021/01/25 02:47:29;;;;;;;;;;;;;;;21.72;28.47;96401.97;4962797;29;646;-75
2021/01/25 02:49:54;;;;;;;;;;;;;;;21.91;28.12;96396.13;4946192;29;733;-74
2021/01/25 02:52:19;;;;;;;;;;;;;;;21.94;28.13;96403.66;4962811;29;649;-74
2021/01/25 02:54:48;;;;;;;;;;;;;;;21.94;28.32;96400.84;4962225;29;1008;-75
2021/01/25 02:57:16;;;;;;;;;;;;;;;21.92;28.09;96397.72;4945627;29;871;-75
2021/01/25 02:59:42;;;;;;;;;;;;;;;21.62;28.52;96391.22;4945881;29;1075;-75
2021/01/25 03:02:08;;;;;;;;;;;;;;;21.39;28.37;96385.06;4962447;28;657;-75
2021/01/25 03:04:34;;;;;;;;;;;;;;;21.61;28.67;96372.66;4961957;29;1962;-75
2021/01/25 03:06:59;;;;;;;;;;;;;;;22.25;28.55;96372.84;4945727;29;965;-74
2021/01/25 03:09:25;;;;;;;;;;;;;;;22.75;28.21;96363.63;4961993;29;909;-75
2021/01/25 03:11:51;;;;;;;;;;;;;;;21.63;30.25;96359.59;4945538;29;992;-74
2021/01/25 03:14:16;;;;;;;;;;;;;;;21.78;30.01;96343.41;4962173;29;953;-75
2021/01/25 03:16:41;;;;;;;;;;;;;;;21.28;31.31;96348.81;4962285;29;771;-74
2021/01/25 03:19:07;;;;;;;;;;;;;;;21.88;30.37;96340.50;4962165;29;647;-75
2021/01/25 03:21:35;;;;;;;;;;;;;;;21.55;31.11;96342.22;4962295;29;675;-74
2021/01/25 03:24:01;;;;;;;;;;;;;;;21.42;31.29;96326.75;4961873;29;993;-74
2021/01/25 03:26:27;;;;;;;;;;;;;;;21.87;30.47;96321.94;4961746;29;1914;-75
2021/01/25 03:28:52;;;;;;;;;;;;;;;22.05;29.74;96322.50;4962013;29;804;-75
2021/01/25 03:31:18;;;;;;;;;;;;;;;21.76;30.08;96323.31;4962081;29;690;-75
2021/01/25 03:33:43;;;;;;;;;;;;;;;21.43;30.46;96314.16;4962028;29;661;-74
2021/01/25 03:36:09;;;;;;;;;;;;;;;21.71;30.64;96315.50;4961610;29;912;-75
2021/01/25 03:38:34;;;;;;;;;;;;;;;21.98;30.13;96305.16;4961518;29;907;-74
2021/01/25 03:41:00;;;;;;;;;;;;;;;22.26;29.77;96317.75;4961986;29;832;-75
2021/01/25 03:43:25;;;;;;;;;;;;;;;21.85;30.07;96320.34;4961903;29;679;-75
2021/01/25 03:45:50;;;;;;;;;;;;;;;21.56;30.57;96309.03;4962102;29;1898;-74
2021/01/25 03:48:16;;;;;;;;;;;;;;;21.72;29.92;96300.06;4961837;29;678;-75
2021/01/25 03:50:41;;;;;;;;;;;;;;;21.85;30.31;96303.38;4961556;29;1160;-75
2021/01/25 03:53:07;;;;;;;;;;;;;;;22.31;29.65;96285.13;4961519;29;912;-75
2021/01/25 03:55:32;;;;;;;;;;;;;;;22.18;29.85;96293.16;4961683;29;1010;-75
2021/01/25 03:58:01;;;;;;;;;;;;;;;21.95;29.82;96297.63;4961677;29;672;-75
2021/01/25 04:00:26;;;;;;;;;;;;;;;21.56;30.30;96297.72;4961638;29;647;-75
2021/01/25 04:03:04;;;;;;;;;;;;;;;21.07;30.85;96299.00;4961674;29;620;-75
2021/01/25 04:05:29;;;;;;;;;;;;;;;21.29;30.40;96310.00;4961251;29;1976;-74
2021/01/25 04:07:55;;;;;;;;;;;;;;;21.68;30.45;96307.97;4961274;29;927;-75
2021/01/25 04:10:20;;;;;;;;;;;;;;;22.07;29.94;96302.19;4961673;29;861;-75
2021/01/25 04:12:46;;;;;;;;;;;;;;;22.24;29.51;96305.34;4961652;29;608;-74
2021/01/25 04:15:11;;;;;;;;;;;;;;;21.94;29.63;96302.50;4964080;28;660;-75
2021/01/25 04:17:37;;;;;;;;;;;;;;;21.78;29.75;96297.34;4965462;29;623;-75
2021/01/25 04:20:03;;;;;;;;;;;;;;;21.40;30.34;96295.31;4965477;29;679;-75
2021/01/25 04:22:29;;;;;;;;;;;;;;;21.77;30.22;96310.72;4965478;29;711;-75
2021/01/25 04:24:55;;;;;;;;;;;;;;;22.01;30.07;96309.81;4964995;29;1978;-75
2021/01/25 04:27:20;;;;;;;;;;;;;;;22.29;29.21;96316.78;4967606;28;1086;-75
2021/01/25 04:29:46;;;;;;;;;;;;;;;22.31;29.17;96305.72;4975640;28;1271;-75
2021/01/25 04:32:11;;;;;;;;;;;;;;;22.01;29.49;96310.59;4974172;28;1160;-75
2021/01/25 04:34:37;;;;;;;;;;;;;;;21.45;29.88;96308.78;4974016;28;1215;-75
2021/01/25 04:37:02;;;;;;;;;;;;;;;21.47;30.05;96312.72;4972867;28;1279;-75
2021/01/25 04:39:27;;;;;;;;;;;;;;;21.52;29.71;96314.09;4973373;28;1114;-75
2021/01/25 04:41:53;;;;;;;;;;;;;;;21.73;30.03;96310.09;4971930;28;1152;-75
2021/01/25 04:44:18;;;;;;;;;;;;;;;22.14;29.25;96293.34;4965199;29;855;-75
2021/01/25 04:46:44;;;;;;;;;;;;;;;22.19;29.27;96289.81;4948335;29;1899;-75
2021/01/25 04:49:13;;;;;;;;;;;;;;;22.03;29.53;96288.25;4964925;29;652;-75
2021/01/25 04:51:38;;;;;;;;;;;;;;;21.48;30.18;96285.19;4965173;29;702;-75
2021/01/25 04:54:04;;;;;;;;;;;;;;;21.33;30.05;96294.44;4964743;29;942;-74
2021/01/25 04:56:29;;;;;;;;;;;;;;;21.74;29.56;96291.84;4947266;29;898;-75
2021/01/25 04:58:55;;;;;;;;;;;;;;;22.23;28.98;96287.59;4948014;29;985;-75
2021/01/25 05:01:21;;;;;;;;;;;;;;;22.29;29.13;96287.66;4948370;29;651;-75
2021/01/25 05:03:46;;;;;;;;;;;;;;;22.07;29.24;96282.38;4947685;29;836;-75
2021/01/25 05:06:11;;;;;;;;;;;;;;;21.93;29.30;96292.44;4964590;29;1964;-74
2021/01/25 05:08:37;;;;;;;;;;;;;;;21.56;29.74;96301.31;4964285;29;878;-75
2021/01/25 05:11:23;;;;;;;;;;;;;;;21.46;29.66;96299.84;4964647;29;913;-77
2021/01/25 05:13:48;;;;;;;;;;;;;;;21.68;29.42;96312.84;4964359;29;890;-75
2021/01/25 05:16:17;;;;;;;;;;;;;;;21.98;29.24;96300.25;4969633;28;1015;-71
2021/01/25 05:18:43;;;;;;;;;;;;;;;22.19;29.17;96309.66;4973018;28;1109;-72
2021/01/25 05:21:08;;;;;;;;;;;;;;;21.76;29.66;96305.50;4964363;29;659;-73
2021/01/25 05:23:40;;;;;;;;;;;;;;;21.58;29.69;96314.97;4964101;29;1015;-72
2021/01/25 05:26:08;;;;;;;;;;;;;;;21.71;29.55;96323.97;4962945;28;1975;-73
2021/01/25 05:28:43;;;;;;;;;;;;;;;21.94;29.61;96321.56;4964061;29;877;-72
2021/01/25 05:31:18;;;;;;;;;;;;;;;22.07;29.44;96319.19;4964144;29;660;-72
2021/01/25 05:33:44;;;;;;;;;;;;;;;22.15;29.24;96331.72;4963982;29;656;-73
2021/01/25 05:36:09;;;;;;;;;;;;;;;21.81;29.47;96331.13;4947014;29;791;-72
2021/01/25 05:38:35;;;;;;;;;;;;;;;21.41;29.69;96325.97;4947385;29;871;-72
2021/01/25 05:41:00;;;;;;;;;;;;;;;21.11;29.74;96319.41;4963960;29;884;-71
2021/01/25 05:43:32;;;;;;;;;;;;;;;21.33;29.84;96319.88;4947169;29;1302;-72
2021/01/25 05:46:13;;;;;;;;;;;;;;;22.30;29.58;96315.50;4963934;29;1933;-74
2021/01/25 05:48:39;;;;;;;;;;;;;;;22.71;29.17;96321.28;4963867;29;667;-72
2021/01/25 05:51:17;;;;;;;;;;;;;;;22.09;30.15;96316.66;4963900;29;1082;-75
2021/01/25 05:53:43;;;;;;;;;;;;;;;21.56;31.18;96309.03;4963694;29;840;-74
2021/01/25 05:56:09;;;;;;;;;;;;;;;21.32;31.30;96318.31;4963386;29;645;-73
2021/01/25 05:58:35;;;;;;;;;;;;;;;21.85;30.75;96308.25;4963271;29;695;-74
2021/01/25 06:01:00;;;;;;;;;;;;;;;21.74;30.83;96313.72;4965453;29;607;-79
2021/01/25 06:03:26;;;;;;;;;;;;;;;22.27;29.74;96310.81;4947352;29;611;-75
2021/01/25 06:05:51;;;;;;;;;;;;;;;22.11;29.60;96308.47;4946948;29;1973;-75
2021/01/25 06:08:24;;;;;;;;;;;;;;;21.75;30.35;96304.72;4946151;29;1122;-73
2021/01/25 06:11:02;;;;;;;;;;;;;;;21.80;30.07;96312.53;4946868;29;927;-76
2021/01/25 06:13:29;;;;;;;;;;;;;;;21.55;30.62;96313.91;4946255;29;954;-74
2021/01/25 06:15:55;;;;;;;;;;;;;;;21.61;30.91;96304.75;4963590;28;1121;-75
2021/01/25 06:18:21;;;;;;;;;;;;;;;21.62;30.77;96290.09;4930560;29;1134;-75
2021/01/25 06:20:47;;;;;;;;;;;;;;;21.62;30.77;96307.06;4947137;29;852;-77
2021/01/25 06:23:12;;;;;;;;;;;;;;;21.36;31.38;96301.19;4945968;29;918;-75
2021/01/25 06:25:38;;;;;;;;;;;;;;;21.13;31.51;96294.25;4946810;29;1969;-76
2021/01/25 06:28:04;;;;;;;;;;;;;;;21.59;31.18;96296.72;4946055;29;784;-74
2021/01/25 06:30:29;;;;;;;;;;;;;;;22.10;30.63;96278.56;4963606;29;715;-75
2021/01/25 06:32:54;;;;;;;;;;;;;;;22.24;30.49;96279.88;4946193;29;1284;-74
2021/01/25 06:35:20;;;;;;;;;;;;;;;21.98;30.40;96277.59;4962712;29;1089;-73
2021/01/25 06:37:52;;;;;;;;;;;;;;;21.82;30.58;96270.38;4961755;28;885;-73
2021/01/25 06:40:21;;;;;;;;;;;;;;;21.60;30.66;96267.13;4962936;29;853;-73
2021/01/25 06:42:47;;;;;;;;;;;;;;;21.52;30.63;96274.47;4962821;29;643;-73
2021/01/25 06:45:13;;;;;;;;;;;;;;;21.50;30.75;96274.16;4946276;29;1902;-76
2021/01/25 06:47:39;;;;;;;;;;;;;;;21.72;30.92;96274.59;4963268;29;874;-75
2021/01/25 06:50:05;;;;;;;;;;;;;;;22.14;30.90;96272.75;4962570;29;933;-72
2021/01/25 06:52:30;;;;;;;;;;;;;;;22.42;30.24;96276.78;4962854;29;981;-75
2021/01/25 06:55:05;;;;;;;;;;;;;;;21.76;31.03;96266.69;4962985;29;722;-74
2021/01/25 06:57:34;;;;;;;;;;;;;;;21.73;30.97;96259.16;4962484;29;723;-73
2021/01/25 07:00:30;;;;;;;;;;;;;;;21.36;31.19;96266.44;4962788;29;646;-72
2021/01/25 07:02:57;;;;;;;;;;;;;;;21.41;31.19;96255.22;4961583;29;1037;-73
2021/01/25 07:05:29;;;;;;;;;;;;;;;22.00;30.76;96262.94;4962300;28;1981;-75
2021/01/25 07:08:13;;;;;;;;;;;;;;;22.43;29.88;96260.56;4962485;29;683;-76
2021/01/25 07:10:54;;;;;;;;;;;;;;;22.19;30.26;96270.00;4962542;29;688;-77
2021/01/25 07:13:21;;;;;;;;;;;;;;;21.74;30.56;96274.88;4963014;29;663;-77
2021/01/25 07:15:47;;;;;;;;;;;;;;;21.51;30.80;96275.75;4946998;29;844;-77
2021/01/25 07:18:13;;;;;;;;;;;;;;;21.20;31.28;96271.25;4946160;29;998;-77
2021/01/25 07:20:38;;;;;;;;;;;;;;;21.69;31.00;96269.88;4946897;29;979;-79
2021/01/25 07:23:03;;;;;;;;;;;;;;;22.05;30.39;96265.09;4946210;29;661;-77
2021/01/25 07:25:29;;;;;;;;;;;;;;;22.12;30.22;96270.38;4945937;29;1903;-75
2021/01/25 07:28:02;;;;;;;;;;;;;;;21.75;30.34;96259.44;4962254;29;668;-75
2021/01/25 07:30:30;;;;;;;;;;;;;;;21.49;30.72;96255.63;4945714;29;731;-75
2021/01/25 07:32:56;;;;;;;;;;;;;;;21.58;29.88;96238.56;4961846;29;672;-75
2021/01/25 07:35:26;;;;;;;;;;;;;;;21.88;30.58;96247.06;4961839;29;1123;-75
2021/01/25 07:37:51;;;;;;;;;;;;;;;22.21;29.69;96229.84;4962065;29;836;-75
2021/01/25 07:40:18;;;;;;;;;;;;;;;22.27;29.34;96213.69;4962051;29;1009;-71
2021/01/25 07:42:44;;;;;;;;;;;;;;;21.88;29.81;96207.41;4961794;29;657;-72
2021/01/25 07:45:09;;;;;;;;;;;;;;;21.55;30.25;96206.38;4944860;29;1969;-72
2021/01/25 07:47:35;;;;;;;;;;;;;;;21.32;30.54;96185.38;4945194;29;596;-74
2021/01/25 07:50:10;;;;;;;;;;;;;;;21.32;30.07;96176.88;4961422;28;931;-75
2021/01/25 07:52:35;;;;;;;;;;;;;;;21.79;30.55;96158.13;4961864;29;875;-75
2021/01/25 07:55:13;;;;;;;;;;;;;;;22.15;29.91;96161.78;4962104;29;923;-73
2021/01/25 07:57:38;;;;;;;;;;;;;;;22.36;29.54;96160.53;4961360;29;726;-74
2021/01/25 08:00:16;;;;;;;;;;;;;;;22.18;29.45;96162.84;4962094;29;699;-73
2021/01/25 08:02:43;;;;;;;;;;;;;;;21.59;30.26;96163.69;4944620;29;812;-75
2021/01/25 08:05:11;;;;;;;;;;;;;;;21.60;30.01;96168.09;4944002;29;1894;-76
2021/01/25 08:07:36;;;;;;;;;;;;;;;21.83;30.10;96164.34;4961128;29;1016;-72
2021/01/25 08:10:02;;;;;;;;;;;;;;;22.15;30.40;96170.28;4944943;29;845;-71
2021/01/25 08:12:27;;;;;;;;;;;;;;;22.54;30.26;96175.72;4961383;29;712;-71
2021/01/25 08:14:59;;;;;;;;;;;;;;;22.16;30.54;96169.00;4944579;29;943;-69
2021/01/25 08:17:29;;;;;;;;;;;;;;;22.04;31.35;96158.75;4945542;29;723;-74
2021/01/25 08:19:59;;;;;;;;;;;;;;;22.09;31.24;96147.50;4945258;29;643;-72
2021/01/25 08:22:36;;;;;;;;;;;;;;;22.06;31.40;96142.03;4961340;29;615;-75
2021/01/25 08:25:01;;;;;;;;;;;;;;;21.84;31.65;96148.94;4944364;29;1982;-76
2021/01/25 08:27:27;;;;;;;;;;;;;;;22.21;31.29;96164.69;4961229;29;1048;-72
2021/01/25 08:29:57;;;;;;;;;;;;;;;22.10;31.16;96174.56;4961100;29;727;-71
2021/01/25 08:32:25;;;;;;;;;;;;;;;22.24;31.51;96183.53;4944169;29;810;-70
2021/01/25 08:35:00;;;;;;;;;;;;;;;22.03;31.79;96183.47;4961406;29;699;-69
2021/01/25 08:37:27;;;;;;;;;;;;;;;22.17;31.45;96187.53;4961223;29;699;-69
2021/01/25 08:39:52;;;;;;;;;;;;;;;22.11;31.74;96183.84;4961101;29;848;-71
2021/01/25 08:42:22;;;;;;;;;;;;;;;22.22;31.56;96184.00;4961130;29;919;-70
2021/01/25 08:44:50;;;;;;;;;;;;;;;22.08;31.91;96167.81;4961364;29;1971;-72
2021/01/25 08:47:16;;;;;;;;;;;;;;;22.17;31.61;96173.38;4944257;29;596;-71
2021/01/25 08:49:42;;;;;;;;;;;;;;;22.20;31.55;96180.91;4960992;29;647;-71
2021/01/25 08:52:08;;;;;;;;;;;;;;;22.10;31.78;96174.56;4961467;29;691;-70
2021/01/25 08:54:35;;;;;;;;;;;;;;;22.24;31.39;96178.66;4944462;29;620;-72
2021/01/25 08:57:01;;;;;;;;;;;;;;;22.19;31.44;96179.34;4960737;29;976;-71
2021/01/25 08:59:27;;;;;;;;;;;;;;;22.09;31.30;96181.50;4943610;29;862;-72
2021/01/25 09:01:53;;;;;;;;;;;;;;;22.13;31.33;96181.31;4962786;28;965;-70
2021/01/25 09:04:19;;;;;;;;;;;;;;;22.35;30.95;96184.47;4964831;29;631;-70
2021/01/25 09:06:51;;;;;;;;;;;;;;;22.31;30.81;96186.72;4964349;29;1906;-72
2021/01/25 09:09:16;;;;;;;;;;;;;;;21.93;31.26;96167.09;4964369;29;686;-72
2021/01/25 09:11:42;;;;;;;;;;;;;;;21.72;31.43;96172.69;4963180;28;1245;-72
2021/01/25 09:14:07;;;;;;;;;;;;;;;21.58;31.83;96164.97;4964095;29;811;-73
2021/01/25 09:16:33;;;;;;;;;;;;;;;21.42;32.03;96154.16;4963744;29;848;-73
2021/01/25 09:18:58;;;;;;;;;;;;;;;21.44;31.76;96149.56;4964682;29;588;-73
2021/01/25 09:21:24;;;;;;;;;;;;;;;21.64;31.64;96146.03;4964574;29;683;-72
2021/01/25 09:23:49;;;;;;;;;;;;;;;21.88;31.66;96142.28;4963981;29;643;-73
2021/01/25 09:26:15;;;;;;;;;;;;;;;22.08;31.54;96131.00;4963957;29;1985;-71
2021/01/25 09:28:40;;;;;;;;;;;;;;;22.12;32.04;96127.97;4963970;29;960;-73
2021/01/25 09:31:05;;;;;;;;;;;;;;;22.32;31.52;96125.94;4964201;29;996;-75
2021/01/25 09:33:31;;;;;;;;;;;;;;;22.01;31.73;96111.56;4964025;29;649;-75
2021/01/25 09:35:56;;;;;;;;;;;;;;;21.60;32.45;96114.31;4964154;29;936;-74
2021/01/25 09:38:22;;;;;;;;;;;;;;;21.53;32.23;96114.72;4964287;29;667;-75
2021/01/25 09:40:47;;;;;;;;;;;;;;;21.45;32.08;96122.03;4963656;29;946;-73
2021/01/25 09:43:13;;;;;;;;;;;;;;;21.61;31.91;96115.91;4963902;29;866;-71
2021/01/25 09:45:38;;;;;;;;;;;;;;;21.87;32.00;96129.41;4947278;29;1907;-72
2021/01/25 09:48:04;;;;;;;;;;;;;;;22.05;31.51;96120.66;4963879;29;711;-74
2021/01/25 09:50:30;;;;;;;;;;;;;;;22.19;31.12;96116.25;4963716;29;647;-72
2021/01/25 09:52:56;;;;;;;;;;;;;;;21.97;31.24;96125.19;4947102;29;719;-71
2021/01/25 09:55:22;;;;;;;;;;;;;;;21.56;31.37;96119.41;4963476;29;867;-74
2021/01/25 09:57:47;;;;;;;;;;;;;;;21.63;31.23;96113.34;4963267;29;830;-73
2021/01/25 10:00:13;;;;;;;;;;;;;;;21.82;31.21;96106.19;4963365;29;960;-74
2021/01/25 10:02:38;;;;;;;;;;;;;;;22.08;31.54;96099.84;4963595;29;624;-72
2021/01/25 10:05:05;;;;;;;;;;;;;;;22.02;31.17;96101.81;4963402;29;1960;-75
2021/01/25 10:07:34;;;;;;;;;;;;;;;21.95;31.29;96107.91;4963598;29;1002;-76
2021/01/25 10:10:00;;;;;;;;;;;;;;;21.83;30.89;96102.06;4963142;29;895;-73
2021/01/25 10:12:25;;;;;;;;;;;;;;;21.52;31.39;96090.53;4962876;28;924;-72
2021/01/25 10:14:51;;;;;;;;;;;;;;;21.51;31.19;96080.50;4963315;29;891;-71
2021/01/25 10:17:17;;;;;;;;;;;;;;;21.50;31.05;96081.75;4963390;29;719;-71
2021/01/25 10:19:42;;;;;;;;;;;;;;;21.99;30.81;96074.50;4946736;29;444;-73
2021/01/25 10:22:07;;;;;;;;;;;;;;;22.19;30.45;96077.38;4963209;29;657;-72
2021/01/25 10:24:34;;;;;;;;;;;;;;;22.08;30.75;96071.53;4962602;29;931;-72
2021/01/25 10:26:59;;;;;;;;;;;;;;;21.72;30.80;96065.13;4963074;29;1906;-72
2021/01/25 10:29:25;;;;;;;;;;;;;;;21.61;30.75;96056.47;4963209;29;911;-72
2021/01/25 10:31:51;;;;;;;;;;;;;;;21.43;31.10;96051.03;4963286;29;675;-72
2021/01/25 10:34:17;;;;;;;;;;;;;;;21.37;31.27;96044.50;4946444;29;623;-72
2021/01/25 10:36:42;;;;;;;;;;;;;;;21.96;30.66;96041.47;4962836;29;939;-74
2021/01/25 10:39:07;;;;;;;;;;;;;;;22.10;30.11;96041.44;4962779;29;898;-75
2021/01/25 10:41:33;;;;;;;;;;;;;;;22.15;30.35;96037.13;4963083;29;1195;-73
2021/01/25 10:43:58;;;;;;;;;;;;;;;22.12;30.08;96026.78;4963068;29;643;-72
2021/01/25 10:46:24;;;;;;;;;;;;;;;22.05;30.05;96027.19;4962965;29;1973;-72
2021/01/25 10:48:49;;;;;;;;;;;;;;;21.69;30.60;96020.78;4962706;29;659;-74
2021/01/25 10:51:15;;;;;;;;;;;;;;;21.43;30.56;96017.06;4962300;29;931;-74
2021/01/25 10:53:47;;;;;;;;;;;;;;;21.39;30.88;96016.50;4930383;29;878;-75
2021/01/25 10:56:12;;;;;;;;;;;;;;;21.78;30.96;96014.22;4962537;29;901;-74
2021/01/25 10:58:38;;;;;;;;;;;;;;;22.09;30.13;96005.09;4962284;29;615;-73
2021/01/25 11:01:03;;;;;;;;;;;;;;;22.14;30.21;96006.47;4962604;29;667;-74
2021/01/25 11:03:29;;;;;;;;;;;;;;;21.87;30.15;96011.28;4962122;29;928;-73
2021/01/25 11:05:54;;;;;;;;;;;;;;;21.54;30.36;96009.53;4962164;29;1971;-73
2021/01/25 11:08:20;;;;;;;;;;;;;;;21.11;31.13;96014.00;4962303;29;836;-75
2021/01/25 11:10:45;;;;;;;;;;;;;;;21.77;30.51;96030.44;4962260;29;596;-73
2021/01/25 11:13:11;;;;;;;;;;;;;;;22.20;29.79;96044.16;4962203;29;728;-73
2021/01/25 11:15:36;;;;;;;;;;;;;;;21.89;30.55;96024.94;4962142;29;624;-72
2021/01/25 11:18:02;;;;;;;;;;;;;;;21.78;30.45;96020.66;4945086;29;1150;-71
2021/01/25 11:20:28;;;;;;;;;;;;;;;21.51;30.73;96007.69;4961846;29;873;-73
2021/01/25 11:22:53;;;;;;;;;;;;;;;21.42;30.63;96021.97;4961952;29;912;-74
2021/01/25 11:25:19;;;;;;;;;;;;;;;21.51;30.39;96052.19;4961253;28;1971;-73
2021/01/25 11:27:44;;;;;;;;;;;;;;;21.85;30.73;96093.84;4962023;29;687;-75
2021/01/25 11:30:10;;;;;;;;;;;;;;;21.87;30.31;96084.13;4951231;28;1090;-77
2021/01/25 11:32:35;;;;;;;;;;;;;;;21.56;31.07;96088.28;4964807;28;910;-75
2021/01/25 11:35:01;;;;;;;;;;;;;;;21.35;31.11;96084.63;4981081;28;974;-74
2021/01/25 11:37:26;;;;;;;;;;;;;;;21.74;30.59;96082.38;4955362;28;1030;-72
2021/01/25 11:39:52;;;;;;;;;;;;;;;21.40;31.44;96100.09;4964663;28;1260;-72
2021/01/25 11:42:17;;;;;;;;;;;;;;;21.44;31.70;96117.66;4962085;29;663;-74
2021/01/25 11:44:43;;;;;;;;;;;;;;;21.28;31.82;96119.69;4964327;28;1899;-75
2021/01/25 11:47:08;;;;;;;;;;;;;;;21.30;32.13;96128.50;4980826;28;1097;-75
2021/01/25 11:49:34;;;;;;;;;;;;;;;21.87;31.05;96129.41;4980727;28;902;-75
2021/01/25 11:51:59;;;;;;;;;;;;;;;21.91;31.26;96146.94;4981088;28;939;-74
2021/01/25 11:54:25;;;;;;;;;;;;;;;22.24;30.62;96164.47;4980986;28;663;-75
2021/01/25 11:56:50;;;;;;;;;;;;;;;22.32;30.59;96170.50;4981253;28;571;-76
2021/01/25 11:59:15;;;;;;;;;;;;;;;22.03;30.60;96177.78;4981347;28;698;-75
2021/01/25 12:01:41;;;;;;;;;;;;;;;21.62;31.11;96204.41;4980765;28;861;-76
2021/01/25 12:04:07;;;;;;;;;;;;;;;21.19;32.00;96206.69;4980864;28;908;-77
2021/01/25 12:06:33;;;;;;;;;;;;;;;21.44;31.35;96211.03;4980602;28;1914;-77
2021/01/25 12:08:58;;;;;;;;;;;;;;;22.00;30.80;96217.63;4980902;28;611;-74
2021/01/25 12:11:24;;;;;;;;;;;;;;;22.19;30.37;96230.34;4981238;28;680;-76
2021/01/25 12:13:49;;;;;;;;;;;;;;;22.08;30.52;96224.47;4980626;28;671;-75
2021/01/25 12:16:15;;;;;;;;;;;;;;;20.54;30.00;95971.91;4980540;28;910;-76
2021/01/25 12:18:41;;;;;;;;;;;;;;;21.91;30.19;96240.41;4948356;28;893;-76
2021/01/25 12:21:07;;;;;;;;;;;;;;;21.50;31.11;96232.50;4980838;28;1065;-76
2021/01/25 12:23:32;;;;;;;;;;;;;;;21.52;30.87;96257.50;4981047;28;657;-75
2021/01/25 12:25:58;;;;;;;;;;;;;;;21.84;30.74;96262.19;4980812;28;1975;-77
2021/01/25 12:28:23;;;;;;;;;;;;;;;22.60;29.68;96281.44;4980380;28;983;-76
2021/01/25 12:30:49;;;;;;;;;;;;;;;23.10;28.85;96284.19;4980693;28;864;-76
2021/01/25 12:33:14;;;;;;;;;;;;;;;22.31;30.07;96283.06;4980626;28;824;-76
2021/01/25 12:35:40;;;;;;;;;;;;;;;21.55;31.37;96284.81;4982276;28;537;-75
2021/01/25 12:38:06;;;;;;;;;;;;;;;22.01;31.04;96270.16;4984303;28;777;-79
2021/01/25 12:40:32;;;;;;;;;;;;;;;22.41;30.32;96299.94;4984427;28;703;-77
2021/01/25 12:42:57;;;;;;;;;;;;;;;22.05;30.78;96299.84;4984185;28;847;-76
2021/01/25 12:45:23;;;;;;;;;;;;;;;21.98;31.14;96293.81;4984012;28;1985;-74
2021/01/25 12:47:49;;;;;;;;;;;;;;;22.24;30.23;96294.81;4984185;28;1094;-74
2021/01/25 12:50:14;;;;;;;;;;;;;;;22.49;29.83;96298.28;4984269;28;699;-75
2021/01/25 12:52:40;;;;;;;;;;;;;;;22.36;29.70;96307.88;4967309;28;740;-75
2021/01/25 12:55:11;;;;;;;;;;;;;;;21.93;30.31;96305.84;4984159;28;639;-73
2021/01/25 12:57:37;;;;;;;;;;;;;;;21.71;30.41;96309.81;4983699;28;813;-74
2021/01/25 13:00:03;;;;;;;;;;;;;;;21.56;30.54;96309.81;4966293;28;978;-77
2021/01/25 13:02:29;;;;;;;;;;;;;;;21.45;30.88;96317.28;4983789;28;1087;-74